»·PEaware :: DIHNF KOTH-KMFR

DIHNF :: KOTH-KMFR

FLIGHT INFORMATION

Flight Status: Arrived
Operator: Unknown
More flights by this operator :: More flights under this callsign
Pilot: Klaus A. (15485)
Aircraft: BEECH AIRCRAFT BARON
(BE58)
More flights by this aircraft type
Origin: KOTH North Bend Mun
United States
Destination: KMFR Rogue Valley Intl-Medford
United States
More flights between these airports :: More routes between these airports
Route: +OTH6 DEROY V287 OED
File this flight plan on PilotEdge
Remarks: RMK / SIMBRIEF
Altitude:
(Current/Filed)
11,000ft
Speed:
(Current/Filed)
170kts
Departed: 09-Oct-19 09:56 AM
Arrived: 09-Oct-19 10:34 AM
Distance/Time
Traveled:
87nm/0:37
Distance/Time
To Go:
Arrived

Flight Plot

Page will automatically refresh every two minutes.

Flight plan parsing failed; only flown route is shown


Map Options




Map Legend


Flown Route
Filed Route
Departure Airport
Arrival Airport
Navaid (VOR, NDB)
Fix

Horizontal Profiles

Position Reports

Time Latitude Longitude Heading Altitude Ground
Speed
09-Oct-19 09:37 43.416441 -124.246051 330 21ft 0kts
09-Oct-19 09:38 43.416441 -124.246051 330 21ft 0kts
09-Oct-19 09:39 43.416441 -124.246051 330 21ft 0kts
09-Oct-19 09:40 43.416441 -124.246051 330 21ft 0kts
09-Oct-19 09:41 43.416441 -124.246051 330 21ft 0kts
09-Oct-19 09:42 43.416441 -124.246051 330 21ft 0kts
09-Oct-19 09:43 43.416441 -124.246051 330 21ft 0kts
09-Oct-19 09:44 43.416441 -124.246051 330 21ft 0kts
09-Oct-19 09:45 43.416441 -124.246051 330 21ft 0kts
09-Oct-19 09:46 43.416441 -124.246051 330 21ft 0kts
09-Oct-19 09:47 43.416441 -124.246051 330 21ft 0kts
09-Oct-19 09:48 43.416441 -124.246051 330 21ft 0kts
09-Oct-19 09:49 43.416441 -124.246051 330 21ft 0kts
09-Oct-19 09:50 43.416809 -124.246252 0 21ft 10kts
09-Oct-19 09:51 43.419076 -124.246940 26 21ft 6kts
09-Oct-19 09:52 43.419105 -124.246911 42 21ft 0kts
09-Oct-19 09:53 43.419105 -124.246911 42 21ft 0kts
09-Oct-19 09:54 43.419105 -124.246911 42 21ft 0kts
09-Oct-19 09:55 43.412475 -124.240400 148 71ft 120kts
09-Oct-19 09:56 43.384943 -124.244788 280 2002ft 122kts
09-Oct-19 09:57 43.395167 -124.289714 290 3772ft 126kts
09-Oct-19 09:58 43.404738 -124.337441 296 5125ft 131kts
09-Oct-19 09:59 43.406054 -124.389045 273 6330ft 142kts
09-Oct-19 10:00 43.425492 -124.397954 81 7485ft 127kts
09-Oct-19 10:01 43.421944 -124.348191 88 8475ft 133kts
09-Oct-19 10:02 43.418986 -124.296986 87 9375ft 135kts
09-Oct-19 10:03 43.416872 -124.245157 87 10153ft 138kts
09-Oct-19 10:04 43.414287 -124.192404 87 10873ft 138kts
09-Oct-19 10:05 43.390041 -124.144827 128 10946ft 174kts
09-Oct-19 10:06 43.359256 -124.092674 127 10990ft 181kts
09-Oct-19 10:07 43.322389 -124.043953 132 10980ft 185kts
09-Oct-19 10:08 43.284943 -123.995322 132 10979ft 185kts
09-Oct-19 10:09 43.247573 -123.946261 132 10980ft 185kts
09-Oct-19 10:10 43.210237 -123.897190 132 10980ft 185kts
09-Oct-19 10:11 43.174594 -123.850390 132 10980ft 185kts
09-Oct-19 10:12 43.137005 -123.801060 132 10971ft 189kts
09-Oct-19 10:13 43.098788 -123.751068 132 10971ft 191kts
09-Oct-19 10:14 43.062868 -123.698492 120 10971ft 188kts
09-Oct-19 10:16 43.030972 -123.641505 130 10972ft 190kts
09-Oct-19 10:17 42.992786 -123.591238 131 10971ft 191kts
09-Oct-19 10:18 42.954654 -123.540478 130 10971ft 191kts
09-Oct-19 10:19 42.916400 -123.489228 131 10853ft 193kts
09-Oct-19 10:20 42.877981 -123.438360 131 10849ft 191kts
09-Oct-19 10:21 42.839812 -123.388031 131 10849ft 190kts
09-Oct-19 10:22 42.802027 -123.337945 131 10964ft 185kts
09-Oct-19 10:23 42.763153 -123.286143 132 10441ft 203kts
09-Oct-19 10:24 42.722284 -123.232080 132 9789ft 205kts
09-Oct-19 10:25 42.683370 -123.175754 126 9103ft 203kts
09-Oct-19 10:26 42.647919 -123.117859 126 8412ft 193kts
09-Oct-19 10:27 42.614470 -123.064071 125 7586ft 181kts
09-Oct-19 10:28 42.581595 -123.012517 126 6515ft 180kts
09-Oct-19 10:29 42.545757 -122.969017 157 5661ft 172kts
09-Oct-19 10:30 42.501913 -122.944902 150 5011ft 165kts
09-Oct-19 10:31 42.463144 -122.922852 148 3294ft 123kts
09-Oct-19 10:32 42.431350 -122.903077 153 2405ft 126kts
09-Oct-19 10:33 42.399172 -122.886295 154 1705ft 125kts
09-Oct-19 10:33 42.376767 -122.874213 158 1337ft 26kts
09-Oct-19 10:35 42.376108 -122.875328 284 1337ft 0kts
09-Oct-19 10:36 42.376000 -122.875467 161 1337ft 7kts
09-Oct-19 10:36 42.373026 -122.875260 180 1337ft 12kts
09-Oct-19 10:38 42.372034 -122.876353 217 1337ft 10kts
09-Oct-19 10:39 42.371394 -122.876630 111 1337ft 0kts
09-Oct-19 10:39 42.371394 -122.876630 111 1337ft 0kts

Navigation Log

Ident Type
Flight plan parsing failed, navigation log unavailable